sensor_id;sensor_type;location;lat;lon;timestamp;pressure;altitude;pressure_sealevel;temperature;humidity
73171;BME280;61381;50.118;19.962;2023-04-29T00:01:19;98282.63;;;5.07;100.00
73171;BME280;61381;50.118;19.962;2023-04-29T00:06:21;98281.81;;;5.06;100.00
73171;BME280;61381;50.118;19.962;2023-04-29T00:11:22;98292.34;;;4.96;100.00
73171;BME280;61381;50.118;19.962;2023-04-29T00:16:23;98286.38;;;4.78;100.00
73171;BME280;61381;50.118;19.962;2023-04-29T00:21:25;98277.81;;;4.71;100.00
73171;BME280;61381;50.118;19.962;2023-04-29T00:26:26;98281.97;;;4.94;100.00
73171;BME280;61381;50.118;19.962;2023-04-29T00:31:27;98281.59;;;5.13;100.00
73171;BME280;61381;50.118;19.962;2023-04-29T00:36:30;98290.16;;;5.20;100.00
73171;BME280;61381;50.118;19.962;2023-04-29T00:41:31;98274.88;;;5.00;100.00
73171;BME280;61381;50.118;19.962;2023-04-29T00:46:32;98265.13;;;4.78;100.00
73171;BME280;61381;50.118;19.962;2023-04-29T00:51:35;98265.50;;;4.60;100.00
73171;BME280;61381;50.118;19.962;2023-04-29T00:56:38;98268.09;;;4.55;100.00
73171;BME280;61381;50.118;19.962;2023-04-29T01:01:40;98268.69;;;4.35;100.00
73171;BME280;61381;50.118;19.962;2023-04-29T01:06:51;98269.13;;;4.26;100.00
73171;BME280;61381;50.118;19.962;2023-04-29T01:12:05;98270.50;;;4.07;100.00
73171;BME280;61381;50.118;19.962;2023-04-29T01:17:10;98265.97;;;4.29;100.00
73171;BME280;61381;50.118;19.962;2023-04-29T01:22:12;98260.06;;;4.22;100.00
73171;BME280;61381;50.118;19.962;2023-04-29T01:27:26;98265.25;;;4.12;100.00
73171;BME280;61381;50.118;19.962;2023-04-29T01:32:36;98255.78;;;3.94;100.00
73171;BME280;61381;50.118;19.962;2023-04-29T01:37:48;98261.56;;;3.91;100.00
73171;BME280;61381;50.118;19.962;2023-04-29T01:43:00;98255.63;;;3.84;100.00
73171;BME280;61381;50.118;19.962;2023-04-29T01:48:01;98258.84;;;3.86;100.00
73171;BME280;61381;50.118;19.962;2023-04-29T01:53:03;98252.00;;;3.90;100.00
73171;BME280;61381;50.118;19.962;2023-04-29T01:58:06;98254.09;;;4.10;100.00
73171;BME280;61381;50.118;19.962;2023-04-29T02:03:07;98257.97;;;4.24;100.00
73171;BME280;61381;50.118;19.962;2023-04-29T02:08:08;98258.03;;;4.29;100.00
73171;BME280;61381;50.118;19.962;2023-04-29T02:13:10;98253.13;;;4.43;100.00
73171;BME280;61381;50.118;19.962;2023-04-29T02:18:11;98254.25;;;4.75;100.00
73171;BME280;61381;50.118;19.962;2023-04-29T02:23:12;98258.66;;;4.96;100.00
73171;BME280;61381;50.118;19.962;2023-04-29T02:28:14;98252.38;;;5.08;100.00
73171;BME280;61381;50.118;19.962;2023-04-29T02:33:15;98265.88;;;5.39;100.00
73171;BME280;61381;50.118;19.962;2023-04-29T02:38:16;98252.81;;;5.32;100.00
73171;BME280;61381;50.118;19.962;2023-04-29T02:43:19;98260.59;;;5.44;100.00
73171;BME280;61381;50.118;19.962;2023-04-29T02:48:20;98259.44;;;5.29;100.00
73171;BME280;61381;50.118;19.962;2023-04-29T02:53:21;98249.13;;;5.33;100.00
73171;BME280;61381;50.118;19.962;2023-04-29T02:58:23;98248.19;;;5.60;100.00
73171;BME280;61381;50.118;19.962;2023-04-29T03:03:24;98240.56;;;5.74;100.00
73171;BME280;61381;50.118;19.962;2023-04-29T03:08:26;98252.56;;;5.86;100.00
73171;BME280;61381;50.118;19.962;2023-04-29T03:13:28;98242.84;;;5.97;100.00
73171;BME280;61381;50.118;19.962;2023-04-29T03:18:29;98232.72;;;6.04;100.00
73171;BME280;61381;50.118;19.962;2023-04-29T03:23:30;98243.41;;;6.15;100.00
73171;BME280;61381;50.118;19.962;2023-04-29T03:28:32;98243.19;;;6.27;100.00
73171;BME280;61381;50.118;19.962;2023-04-29T03:33:33;98238.13;;;6.30;100.00
73171;BME280;61381;50.118;19.962;2023-04-29T03:38:34;98234.13;;;6.28;100.00
73171;BME280;61381;50.118;19.962;2023-04-29T03:43:37;98238.66;;;6.27;100.00
73171;BME280;61381;50.118;19.962;2023-04-29T03:48:38;98229.91;;;6.27;100.00
73171;BME280;61381;50.118;19.962;2023-04-29T03:53:39;98241.09;;;6.39;100.00
73171;BME280;61381;50.118;19.962;2023-04-29T03:58:41;98237.34;;;6.35;100.00
73171;BME280;61381;50.118;19.962;2023-04-29T04:03:42;98240.03;;;6.45;100.00
73171;BME280;61381;50.118;19.962;2023-04-29T04:08:43;98239.22;;;6.45;100.00
73171;BME280;61381;50.118;19.962;2023-04-29T04:13:46;98244.84;;;6.53;100.00
73171;BME280;61381;50.118;19.962;2023-04-29T04:18:46;98246.16;;;6.46;100.00
73171;BME280;61381;50.118;19.962;2023-04-29T04:23:48;98242.19;;;6.58;100.00
73171;BME280;61381;50.118;19.962;2023-04-29T04:28:50;98241.16;;;6.65;100.00
73171;BME280;61381;50.118;19.962;2023-04-29T04:33:51;98233.69;;;6.67;100.00
73171;BME280;61381;50.118;19.962;2023-04-29T04:38:52;98240.59;;;6.73;100.00
73171;BME280;61381;50.118;19.962;2023-04-29T04:43:55;98231.03;;;6.82;100.00
73171;BME280;61381;50.118;19.962;2023-04-29T04:48:56;98239.03;;;7.08;100.00
73171;BME280;61381;50.118;19.962;2023-04-29T04:53:57;98233.69;;;7.23;100.00
73171;BME280;61381;50.118;19.962;2023-04-29T04:58:59;98242.75;;;7.17;100.00
73171;BME280;61381;50.118;19.962;2023-04-29T05:04:00;98235.25;;;7.35;100.00
73171;BME280;61381;50.118;19.962;2023-04-29T05:09:01;98239.47;;;7.61;100.00
73171;BME280;61381;50.118;19.962;2023-04-29T05:14:03;98248.97;;;7.93;100.00
73171;BME280;61381;50.118;19.962;2023-04-29T05:19:04;98234.75;;;8.08;100.00
73171;BME280;61381;50.118;19.962;2023-04-29T05:24:05;98237.16;;;8.10;100.00
73171;BME280;61381;50.118;19.962;2023-04-29T05:29:08;98252.13;;;8.06;100.00
73171;BME280;61381;50.118;19.962;2023-04-29T05:34:09;98246.19;;;8.19;100.00
73171;BME280;61381;50.118;19.962;2023-04-29T05:39:10;98248.56;;;8.20;100.00
73171;BME280;61381;50.118;19.962;2023-04-29T05:44:12;98256.75;;;8.45;100.00
73171;BME280;61381;50.118;19.962;2023-04-29T05:49:13;98249.97;;;8.63;100.00
73171;BME280;61381;50.118;19.962;2023-04-29T05:54:14;98248.63;;;9.00;100.00
73171;BME280;61381;50.118;19.962;2023-04-29T05:59:17;98251.09;;;9.25;100.00
73171;BME280;61381;50.118;19.962;2023-04-29T06:04:18;98253.59;;;9.94;100.00
73171;BME280;61381;50.118;19.962;2023-04-29T06:09:19;98258.22;;;10.32;100.00
73171;BME280;61381;50.118;19.962;2023-04-29T06:14:22;98258.97;;;10.76;100.00
73171;BME280;61381;50.118;19.962;2023-04-29T06:19:23;98259.34;;;11.21;100.00
73171;BME280;61381;50.118;19.962;2023-04-29T06:24:24;98265.47;;;11.54;100.00
73171;BME280;61381;50.118;19.962;2023-04-29T06:29:26;98266.03;;;12.12;100.00
73171;BME280;61381;50.118;19.962;2023-04-29T06:34:27;98257.25;;;12.20;100.00
73171;BME280;61381;50.118;19.962;2023-04-29T06:39:28;98262.81;;;11.82;100.00
73171;BME280;61381;50.118;19.962;2023-04-29T06:44:30;98254.19;;;12.13;100.00
73171;BME280;61381;50.118;19.962;2023-04-29T06:49:31;98265.09;;;12.30;100.00
73171;BME280;61381;50.118;19.962;2023-04-29T06:54:32;98263.25;;;12.54;100.00
73171;BME280;61381;50.118;19.962;2023-04-29T06:59:35;98261.41;;;13.45;100.00
73171;BME280;61381;50.118;19.962;2023-04-29T07:04:36;98259.19;;;13.24;99.91
73171;BME280;61381;50.118;19.962;2023-04-29T07:09:37;98260.88;;;13.11;100.00
73171;BME280;61381;50.118;19.962;2023-04-29T07:14:39;98263.91;;;14.30;99.06
73171;BME280;61381;50.118;19.962;2023-04-29T07:19:40;98264.00;;;15.18;91.28
73171;BME280;61381;50.118;19.962;2023-04-29T07:24:42;98266.34;;;15.93;88.32
73171;BME280;61381;50.118;19.962;2023-04-29T07:29:44;98268.78;;;17.00;80.98
73171;BME280;61381;50.118;19.962;2023-04-29T07:34:45;98268.28;;;17.40;80.33
73171;BME280;61381;50.118;19.962;2023-04-29T07:39:46;98267.09;;;17.87;78.31
73171;BME280;61381;50.118;19.962;2023-04-29T07:44:49;98275.59;;;18.10;78.07
73171;BME280;61381;50.118;19.962;2023-04-29T07:49:49;98269.25;;;18.30;76.99
73171;BME280;61381;50.118;19.962;2023-04-29T07:54:51;98275.91;;;18.45;75.21
73171;BME280;61381;50.118;19.962;2023-04-29T07:59:53;98281.59;;;18.93;74.00
73171;BME280;61381;50.118;19.962;2023-04-29T08:04:54;98270.75;;;18.03;77.20
73171;BME280;61381;50.118;19.962;2023-04-29T08:09:55;98273.69;;;17.98;76.76
73171;BME280;61381;50.118;19.962;2023-04-29T08:14:57;98285.22;;;18.07;77.24
73171;BME280;61381;50.118;19.962;2023-04-29T08:19:58;98280.81;;;17.90;74.66
73171;BME280;61381;50.118;19.962;2023-04-29T08:24:59;98283.00;;;17.88;76.13
73171;BME280;61381;50.118;19.962;2023-04-29T08:30:02;98272.34;;;18.16;75.21
73171;BME280;61381;50.118;19.962;2023-04-29T08:35:04;98277.19;;;18.76;71.64
73171;BME280;61381;50.118;19.962;2023-04-29T08:40:07;98274.38;;;19.13;71.81
73171;BME280;61381;50.118;19.962;2023-04-29T08:45:10;98275.97;;;19.74;64.24
73171;BME280;61381;50.118;19.962;2023-04-29T08:50:13;98268.81;;;19.22;63.11
73171;BME280;61381;50.118;19.962;2023-04-29T08:55:14;98268.63;;;19.31;61.95
73171;BME280;61381;50.118;19.962;2023-04-29T09:00:17;98274.38;;;19.13;63.27
73171;BME280;61381;50.118;19.962;2023-04-29T09:05:19;98270.81;;;18.97;62.99
73171;BME280;61381;50.118;19.962;2023-04-29T09:10:20;98280.19;;;20.04;58.11
73171;BME280;61381;50.118;19.962;2023-04-29T09:15:23;98270.00;;;19.09;59.36
73171;BME280;61381;50.118;19.962;2023-04-29T09:20:28;98268.19;;;19.29;59.65
73171;BME280;61381;50.118;19.962;2023-04-29T09:25:29;98269.94;;;19.21;60.83
73171;BME280;61381;50.118;19.962;2023-04-29T09:30:44;98269.50;;;19.19;60.54
73171;BME280;61381;50.118;19.962;2023-04-29T09:35:45;98272.59;;;19.05;60.45
73171;BME280;61381;50.118;19.962;2023-04-29T09:40:46;98272.00;;;20.20;57.14
73171;BME280;61381;50.118;19.962;2023-04-29T09:45:49;98266.50;;;20.00;55.63
73171;BME280;61381;50.118;19.962;2023-04-29T09:50:58;98262.31;;;20.38;57.13
73171;BME280;61381;50.118;19.962;2023-04-29T09:56:00;98268.00;;;20.49;55.43
73171;BME280;61381;50.118;19.962;2023-04-29T10:01:04;98264.63;;;20.56;54.57
73171;BME280;61381;50.118;19.962;2023-04-29T10:06:06;98254.63;;;19.45;56.13
73171;BME280;61381;50.118;19.962;2023-04-29T10:11:09;98253.47;;;18.73;58.48
73171;BME280;61381;50.118;19.962;2023-04-29T10:16:22;98251.72;;;18.93;59.62
73171;BME280;61381;50.118;19.962;2023-04-29T10:21:28;98246.94;;;19.47;59.23
73171;BME280;61381;50.118;19.962;2023-04-29T10:26:29;98240.63;;;19.74;57.71
73171;BME280;61381;50.118;19.962;2023-04-29T10:31:33;98241.72;;;19.41;56.91
73171;BME280;61381;50.118;19.962;2023-04-29T10:36:36;98238.09;;;18.12;60.22
73171;BME280;61381;50.118;19.962;2023-04-29T10:41:42;98233.97;;;17.56;62.29
73171;BME280;61381;50.118;19.962;2023-04-29T10:46:45;98234.91;;;17.85;63.18
73171;BME280;61381;50.118;19.962;2023-04-29T10:51:46;98230.06;;;17.78;62.34
73171;BME280;61381;50.118;19.962;2023-04-29T10:56:48;98223.72;;;17.87;62.49
73171;BME280;61381;50.118;19.962;2023-04-29T11:01:51;98219.31;;;17.57;63.80
73171;BME280;61381;50.118;19.962;2023-04-29T11:06:54;98214.25;;;17.68;64.69
73171;BME280;61381;50.118;19.962;2023-04-29T11:11:57;98216.13;;;18.42;62.69
73171;BME280;61381;50.118;19.962;2023-04-29T11:17:01;98226.31;;;18.85;59.98
73171;BME280;61381;50.118;19.962;2023-04-29T11:22:25;98222.81;;;17.58;63.66
73171;BME280;61381;50.118;19.962;2023-04-29T11:27:29;98225.13;;;16.89;65.62
73171;BME280;61381;50.118;19.962;2023-04-29T11:32:34;98223.31;;;17.14;66.42
73171;BME280;61381;50.118;19.962;2023-04-29T11:37:35;98220.53;;;17.35;66.76
73171;BME280;61381;50.118;19.962;2023-04-29T11:42:40;98214.66;;;17.33;64.47
73171;BME280;61381;50.118;19.962;2023-04-29T11:47:43;98208.03;;;17.68;62.85
73171;BME280;61381;50.118;19.962;2023-04-29T11:52:46;98212.91;;;18.11;61.56
73171;BME280;61381;50.118;19.962;2023-04-29T11:57:48;98216.53;;;18.97;60.13
73171;BME280;61381;50.118;19.962;2023-04-29T12:02:50;98211.00;;;18.12;61.03
73171;BME280;61381;50.118;19.962;2023-04-29T12:07:51;98202.16;;;17.65;63.43
73171;BME280;61381;50.118;19.962;2023-04-29T12:12:54;98205.47;;;18.49;61.02
73171;BME280;61381;50.118;19.962;2023-04-29T12:17:56;98213.06;;;19.60;57.64
73171;BME280;61381;50.118;19.962;2023-04-29T12:23:10;98210.38;;;19.28;57.48
73171;BME280;61381;50.118;19.962;2023-04-29T12:28:11;98209.13;;;19.25;58.38
73171;BME280;61381;50.118;19.962;2023-04-29T12:33:19;98210.91;;;19.66;56.70
73171;BME280;61381;50.118;19.962;2023-04-29T12:38:21;98202.53;;;19.11;57.84
73171;BME280;61381;50.118;19.962;2023-04-29T12:43:25;98200.94;;;18.94;58.84
73171;BME280;61381;50.118;19.962;2023-04-29T12:48:30;98195.03;;;18.63;60.42
73171;BME280;61381;50.118;19.962;2023-04-29T12:53:31;98184.38;;;18.70;62.08
73171;BME280;61381;50.118;19.962;2023-04-29T12:58:32;98177.91;;;18.47;60.33
73171;BME280;61381;50.118;19.962;2023-04-29T13:03:35;98181.63;;;18.02;61.31
73171;BME280;61381;50.118;19.962;2023-04-29T13:08:36;98175.09;;;18.43;60.04
73171;BME280;61381;50.118;19.962;2023-04-29T13:13:37;98185.84;;;18.40;60.63
73171;BME280;61381;50.118;19.962;2023-04-29T13:18:39;98189.19;;;18.08;61.15
73171;BME280;61381;50.118;19.962;2023-04-29T13:23:40;98189.31;;;17.99;62.44
73171;BME280;61381;50.118;19.962;2023-04-29T13:28:41;98180.03;;;17.63;64.51
73171;BME280;61381;50.118;19.962;2023-04-29T13:33:44;98174.97;;;16.91;67.31
73171;BME280;61381;50.118;19.962;2023-04-29T13:38:45;98174.66;;;17.05;67.39
73171;BME280;61381;50.118;19.962;2023-04-29T13:43:46;98172.81;;;17.55;65.50
73171;BME280;61381;50.118;19.962;2023-04-29T13:48:48;98172.56;;;17.36;64.58
73171;BME280;61381;50.118;19.962;2023-04-29T13:53:49;98164.50;;;17.02;65.83
73171;BME280;61381;50.118;19.962;2023-04-29T13:58:50;98171.66;;;17.44;64.76
73171;BME280;61381;50.118;19.962;2023-04-29T14:03:52;98158.03;;;17.40;66.70
73171;BME280;61381;50.118;19.962;2023-04-29T14:08:53;98162.34;;;17.54;64.92
73171;BME280;61381;50.118;19.962;2023-04-29T14:13:54;98176.78;;;17.82;64.15
73171;BME280;61381;50.118;19.962;2023-04-29T14:18:57;98167.84;;;17.82;63.65
73171;BME280;61381;50.118;19.962;2023-04-29T14:23:58;98179.03;;;17.68;63.94
73171;BME280;61381;50.118;19.962;2023-04-29T14:28:59;98175.75;;;17.75;65.25
73171;BME280;61381;50.118;19.962;2023-04-29T14:34:01;98162.97;;;17.14;67.21
73171;BME280;61381;50.118;19.962;2023-04-29T14:39:02;98155.75;;;16.84;69.02
73171;BME280;61381;50.118;19.962;2023-04-29T14:44:03;98157.13;;;16.57;70.15
73171;BME280;61381;50.118;19.962;2023-04-29T14:49:06;98159.78;;;16.23;72.42
73171;BME280;61381;50.118;19.962;2023-04-29T14:54:07;98172.91;;;16.13;72.17
73171;BME280;61381;50.118;19.962;2023-04-29T14:59:08;98169.00;;;16.01;72.34
73171;BME280;61381;50.118;19.962;2023-04-29T15:04:10;98164.78;;;15.92;72.85
73171;BME280;61381;50.118;19.962;2023-04-29T15:09:11;98173.41;;;16.06;72.55
73171;BME280;61381;50.118;19.962;2023-04-29T15:14:12;98170.78;;;16.18;74.08
73171;BME280;61381;50.118;19.962;2023-04-29T15:19:15;98178.78;;;16.36;72.60
73171;BME280;61381;50.118;19.962;2023-04-29T15:24:16;98166.38;;;16.14;72.76
73171;BME280;61381;50.118;19.962;2023-04-29T15:29:17;98172.88;;;16.34;73.97
73171;BME280;61381;50.118;19.962;2023-04-29T15:34:19;98172.31;;;16.49;75.24
73171;BME280;61381;50.118;19.962;2023-04-29T15:39:20;98164.81;;;16.67;71.53
73171;BME280;61381;50.118;19.962;2023-04-29T15:44:21;98159.34;;;17.09;71.59
73171;BME280;61381;50.118;19.962;2023-04-29T15:49:24;98168.50;;;17.17;71.02
73171;BME280;61381;50.118;19.962;2023-04-29T15:54:25;98161.72;;;17.11;70.15
73171;BME280;61381;50.118;19.962;2023-04-29T15:59:26;98156.22;;;16.53;72.77
73171;BME280;61381;50.118;19.962;2023-04-29T16:04:28;98160.03;;;16.31;73.91
73171;BME280;61381;50.118;19.962;2023-04-29T16:09:29;98164.16;;;16.16;75.46
73171;BME280;61381;50.118;19.962;2023-04-29T16:14:30;98162.72;;;15.89;77.20
73171;BME280;61381;50.118;19.962;2023-04-29T16:19:33;98158.00;;;15.47;78.21
73171;BME280;61381;50.118;19.962;2023-04-29T16:24:34;98160.41;;;15.40;80.25
73171;BME280;61381;50.118;19.962;2023-04-29T16:29:35;98164.41;;;15.33;80.73
73171;BME280;61381;50.118;19.962;2023-04-29T16:34:37;98161.69;;;15.33;81.20
73171;BME280;61381;50.118;19.962;2023-04-29T16:39:38;98170.75;;;15.38;81.34
73171;BME280;61381;50.118;19.962;2023-04-29T16:44:39;98176.19;;;15.11;84.52
73171;BME280;61381;50.118;19.962;2023-04-29T16:49:42;98169.75;;;14.86;87.65
73171;BME280;61381;50.118;19.962;2023-04-29T16:54:43;98182.28;;;14.56;90.12
73171;BME280;61381;50.118;19.962;2023-04-29T16:59:44;98182.44;;;14.33;92.27
73171;BME280;61381;50.118;19.962;2023-04-29T17:04:46;98180.22;;;14.00;96.26
73171;BME280;61381;50.118;19.962;2023-04-29T17:09:47;98187.41;;;13.73;100.00
73171;BME280;61381;50.118;19.962;2023-04-29T17:14:48;98194.97;;;13.63;100.00
73171;BME280;61381;50.118;19.962;2023-04-29T17:19:51;98190.06;;;13.56;100.00
73171;BME280;61381;50.118;19.962;2023-04-29T17:24:52;98202.84;;;13.42;100.00
73171;BME280;61381;50.118;19.962;2023-04-29T17:29:53;98201.13;;;13.23;100.00
73171;BME280;61381;50.118;19.962;2023-04-29T17:34:55;98213.47;;;12.93;100.00
73171;BME280;61381;50.118;19.962;2023-04-29T17:39:56;98214.97;;;12.26;100.00
73171;BME280;61381;50.118;19.962;2023-04-29T17:44:57;98215.78;;;11.85;100.00
73171;BME280;61381;50.118;19.962;2023-04-29T17:50:00;98203.28;;;11.66;100.00
73171;BME280;61381;50.118;19.962;2023-04-29T17:55:01;98203.97;;;11.44;100.00
73171;BME280;61381;50.118;19.962;2023-04-29T18:00:03;98198.06;;;11.28;100.00
73171;BME280;61381;50.118;19.962;2023-04-29T18:05:07;98196.41;;;11.32;100.00
73171;BME280;61381;50.118;19.962;2023-04-29T18:10:08;98198.88;;;11.29;100.00
73171;BME280;61381;50.118;19.962;2023-04-29T18:15:10;98202.75;;;11.22;100.00
73171;BME280;61381;50.118;19.962;2023-04-29T18:20:12;98200.66;;;11.19;100.00
73171;BME280;61381;50.118;19.962;2023-04-29T18:25:13;98213.19;;;11.24;100.00
73171;BME280;61381;50.118;19.962;2023-04-29T18:30:14;98222.00;;;11.24;100.00
73171;BME280;61381;50.118;19.962;2023-04-29T18:35:17;98231.13;;;11.23;100.00
73171;BME280;61381;50.118;19.962;2023-04-29T18:40:18;98265.28;;;11.18;100.00
73171;BME280;61381;50.118;19.962;2023-04-29T18:45:19;98275.16;;;11.03;100.00
73171;BME280;61381;50.118;19.962;2023-04-29T18:50:21;98276.53;;;11.01;100.00
73171;BME280;61381;50.118;19.962;2023-04-29T18:55:22;98282.63;;;11.06;100.00
73171;BME280;61381;50.118;19.962;2023-04-29T19:00:23;98286.19;;;11.02;100.00
73171;BME280;61381;50.118;19.962;2023-04-29T19:05:26;98276.72;;;10.91;100.00
73171;BME280;61381;50.118;19.962;2023-04-29T19:10:27;98283.06;;;10.95;100.00
73171;BME280;61381;50.118;19.962;2023-04-29T19:15:28;98283.59;;;10.78;100.00
73171;BME280;61381;50.118;19.962;2023-04-29T19:20:30;98278.09;;;10.88;100.00
73171;BME280;61381;50.118;19.962;2023-04-29T19:25:32;98273.22;;;10.90;100.00
73171;BME280;61381;50.118;19.962;2023-04-29T19:30:33;98270.19;;;10.97;100.00
73171;BME280;61381;50.118;19.962;2023-04-29T19:35:35;98277.41;;;10.96;100.00
73171;BME280;61381;50.118;19.962;2023-04-29T19:40:36;98274.69;;;11.01;100.00
73171;BME280;61381;50.118;19.962;2023-04-29T19:45:37;98267.00;;;10.95;100.00
73171;BME280;61381;50.118;19.962;2023-04-29T19:50:40;98274.75;;;10.96;100.00
73171;BME280;61381;50.118;19.962;2023-04-29T19:55:41;98262.16;;;10.97;100.00
73171;BME280;61381;50.118;19.962;2023-04-29T20:00:42;98266.50;;;10.93;100.00
73171;BME280;61381;50.118;19.962;2023-04-29T20:05:45;98265.63;;;10.97;100.00
73171;BME280;61381;50.118;19.962;2023-04-29T20:10:46;98265.13;;;10.95;100.00
73171;BME280;61381;50.118;19.962;2023-04-29T20:15:47;98264.25;;;11.00;100.00
73171;BME280;61381;50.118;19.962;2023-04-29T20:20:49;98264.25;;;11.00;100.00
73171;BME280;61381;50.118;19.962;2023-04-29T20:25:50;98261.84;;;10.98;100.00
73171;BME280;61381;50.118;19.962;2023-04-29T20:30:51;98255.88;;;10.87;100.00
73171;BME280;61381;50.118;19.962;2023-04-29T20:35:54;98253.81;;;10.98;100.00
73171;BME280;61381;50.118;19.962;2023-04-29T20:40:55;98251.50;;;10.92;100.00
73171;BME280;61381;50.118;19.962;2023-04-29T20:45:56;98251.44;;;10.97;100.00
73171;BME280;61381;50.118;19.962;2023-04-29T20:50:58;98254.59;;;10.99;100.00
73171;BME280;61381;50.118;19.962;2023-04-29T20:55:59;98258.94;;;10.95;100.00
73171;BME280;61381;50.118;19.962;2023-04-29T21:01:00;98265.63;;;10.97;100.00
73171;BME280;61381;50.118;19.962;2023-04-29T21:06:04;98261.84;;;10.98;100.00
73171;BME280;61381;50.118;19.962;2023-04-29T21:11:05;98263.97;;;11.01;100.00
73171;BME280;61381;50.118;19.962;2023-04-29T21:16:06;98257.56;;;10.97;100.00
73171;BME280;61381;50.118;19.962;2023-04-29T21:21:08;98267.22;;;10.98;100.00
73171;BME280;61381;50.118;19.962;2023-04-29T21:26:10;98263.13;;;11.01;100.00
73171;BME280;61381;50.118;19.962;2023-04-29T21:31:10;98267.00;;;10.95;100.00
73171;BME280;61381;50.118;19.962;2023-04-29T21:36:13;98264.59;;;10.93;100.00
73171;BME280;61381;50.118;19.962;2023-04-29T21:41:17;98266.13;;;10.99;100.00
73171;BME280;61381;50.118;19.962;2023-04-29T21:46:18;98277.66;;;11.00;100.00
73171;BME280;61381;50.118;19.962;2023-04-29T21:51:21;98285.53;;;10.91;100.00
73171;BME280;61381;50.118;19.962;2023-04-29T21:56:22;98283.34;;;10.93;100.00
73171;BME280;61381;50.118;19.962;2023-04-29T22:01:23;98281.91;;;11.01;100.00
73171;BME280;61381;50.118;19.962;2023-04-29T22:06:26;98285.16;;;10.98;100.00
73171;BME280;61381;50.118;19.962;2023-04-29T22:11:27;98288.66;;;10.98;100.00
73171;BME280;61381;50.118;19.962;2023-04-29T22:16:29;98292.22;;;10.94;100.00
73171;BME280;61381;50.118;19.962;2023-04-29T22:21:32;98291.50;;;10.88;100.00
73171;BME280;61381;50.118;19.962;2023-04-29T22:26:33;98282.94;;;10.86;100.00
73171;BME280;61381;50.118;19.962;2023-04-29T22:31:34;98281.84;;;10.87;100.00
73171;BME280;61381;50.118;19.962;2023-04-29T22:36:36;98279.75;;;10.84;100.00
73171;BME280;61381;50.118;19.962;2023-04-29T22:41:37;98284.53;;;10.87;100.00
73171;BME280;61381;50.118;19.962;2023-04-29T22:46:38;98298.16;;;10.91;100.00
73171;BME280;61381;50.118;19.962;2023-04-29T22:51:41;98286.91;;;10.88;100.00
73171;BME280;61381;50.118;19.962;2023-04-29T22:56:41;98293.38;;;10.87;100.00
73171;BME280;61381;50.118;19.962;2023-04-29T23:01:42;98292.38;;;10.83;100.00
73171;BME280;61381;50.118;19.962;2023-04-29T23:06:45;98296.66;;;10.84;100.00
73171;BME280;61381;50.118;19.962;2023-04-29T23:11:46;98292.84;;;10.85;100.00
73171;BME280;61381;50.118;19.962;2023-04-29T23:16:47;98295.41;;;10.77;100.00
73171;BME280;61381;50.118;19.962;2023-04-29T23:21:49;98289.47;;;10.80;100.00
73171;BME280;61381;50.118;19.962;2023-04-29T23:26:50;98293.91;;;10.70;100.00
73171;BME280;61381;50.118;19.962;2023-04-29T23:31:51;98294.19;;;10.69;100.00
73171;BME280;61381;50.118;19.962;2023-04-29T23:36:54;98287.00;;;10.64;100.00
73171;BME280;61381;50.118;19.962;2023-04-29T23:41:55;98290.69;;;10.68;100.00
73171;BME280;61381;50.118;19.962;2023-04-29T23:46:56;98296.88;;;10.69;100.00
73171;BME280;61381;50.118;19.962;2023-04-29T23:51:58;98294.69;;;10.71;100.00
73171;BME280;61381;50.118;19.962;2023-04-29T23:56:59;98300.13;;;10.66;100.00
